sensor_id;sensor_type;location;lat;lon;timestamp;P1;durP1;ratioP1;P2;durP2;ratioP2
59659;SDS011;45534;52.690;6.268;2022-10-26T00:01:05;12.95;;;6.32;;
59659;SDS011;45534;52.690;6.268;2022-10-26T00:03:38;13.57;;;6.47;;
59659;SDS011;45534;52.690;6.268;2022-10-26T00:06:09;10.13;;;5.53;;
59659;SDS011;45534;52.690;6.268;2022-10-26T00:08:36;13.30;;;6.88;;
59659;SDS011;45534;52.690;6.268;2022-10-26T00:11:03;15.70;;;7.25;;
59659;SDS011;45534;52.690;6.268;2022-10-26T00:13:29;6.40;;;4.93;;
59659;SDS011;45534;52.690;6.268;2022-10-26T00:15:54;8.00;;;5.38;;
59659;SDS011;45534;52.690;6.268;2022-10-26T00:18:20;14.95;;;7.05;;
59659;SDS011;45534;52.690;6.268;2022-10-26T00:20:46;10.60;;;5.97;;
59659;SDS011;45534;52.690;6.268;2022-10-26T00:23:12;11.52;;;6.20;;
59659;SDS011;45534;52.690;6.268;2022-10-26T00:25:38;13.55;;;6.57;;
59659;SDS011;45534;52.690;6.268;2022-10-26T00:28:03;12.73;;;7.55;;
59659;SDS011;45534;52.690;6.268;2022-10-26T00:30:29;11.18;;;7.57;;
59659;SDS011;45534;52.690;6.268;2022-10-26T00:32:55;11.18;;;6.95;;
59659;SDS011;45534;52.690;6.268;2022-10-26T00:35:20;12.30;;;6.50;;
59659;SDS011;45534;52.690;6.268;2022-10-26T00:37:46;6.20;;;4.90;;
59659;SDS011;45534;52.690;6.268;2022-10-26T00:40:11;16.20;;;6.10;;
59659;SDS011;45534;52.690;6.268;2022-10-26T00:42:37;10.35;;;7.38;;
59659;SDS011;45534;52.690;6.268;2022-10-26T00:45:04;14.95;;;6.22;;
59659;SDS011;45534;52.690;6.268;2022-10-26T00:50:24;11.07;;;7.50;;
59659;SDS011;45534;52.690;6.268;2022-10-26T00:52:50;9.57;;;5.97;;
59659;SDS011;45534;52.690;6.268;2022-10-26T00:55:17;10.90;;;7.32;;
59659;SDS011;45534;52.690;6.268;2022-10-26T00:57:48;12.20;;;5.50;;
59659;SDS011;45534;52.690;6.268;2022-10-26T01:00:17;11.25;;;6.57;;
59659;SDS011;45534;52.690;6.268;2022-10-26T01:02:43;9.82;;;7.72;;
59659;SDS011;45534;52.690;6.268;2022-10-26T01:05:13;8.85;;;6.07;;
59659;SDS011;45534;52.690;6.268;2022-10-26T01:07:41;10.32;;;5.95;;
59659;SDS011;45534;52.690;6.268;2022-10-26T01:10:08;9.05;;;6.15;;
59659;SDS011;45534;52.690;6.268;2022-10-26T01:12:34;10.13;;;7.05;;
59659;SDS011;45534;52.690;6.268;2022-10-26T01:15:00;8.45;;;6.50;;
59659;SDS011;45534;52.690;6.268;2022-10-26T01:17:28;12.60;;;7.93;;
59659;SDS011;45534;52.690;6.268;2022-10-26T01:23:07;11.30;;;5.72;;
59659;SDS011;45534;52.690;6.268;2022-10-26T01:26:14;9.77;;;6.70;;
59659;SDS011;45534;52.690;6.268;2022-10-26T01:31:42;14.13;;;7.20;;
59659;SDS011;45534;52.690;6.268;2022-10-26T01:34:20;11.07;;;7.00;;
59659;SDS011;45534;52.690;6.268;2022-10-26T01:37:03;10.02;;;6.75;;
59659;SDS011;45534;52.690;6.268;2022-10-26T01:39:51;8.98;;;7.20;;
59659;SDS011;45534;52.690;6.268;2022-10-26T01:42:19;6.70;;;5.50;;
59659;SDS011;45534;52.690;6.268;2022-10-26T01:44:48;12.23;;;6.80;;
59659;SDS011;45534;52.690;6.268;2022-10-26T01:47:26;21.33;;;7.65;;
59659;SDS011;45534;52.690;6.268;2022-10-26T01:49:55;13.82;;;9.75;;
59659;SDS011;45534;52.690;6.268;2022-10-26T01:52:23;11.52;;;6.80;;
59659;SDS011;45534;52.690;6.268;2022-10-26T01:54:49;10.55;;;5.93;;
59659;SDS011;45534;52.690;6.268;2022-10-26T01:57:16;9.73;;;6.57;;
59659;SDS011;45534;52.690;6.268;2022-10-26T01:59:56;10.20;;;5.45;;
59659;SDS011;45534;52.690;6.268;2022-10-26T02:08:47;8.98;;;6.32;;
59659;SDS011;45534;52.690;6.268;2022-10-26T02:11:37;10.13;;;6.65;;
59659;SDS011;45534;52.690;6.268;2022-10-26T02:14:17;10.38;;;6.40;;
59659;SDS011;45534;52.690;6.268;2022-10-26T02:17:06;13.00;;;6.20;;
59659;SDS011;45534;52.690;6.268;2022-10-26T02:24:58;10.32;;;7.93;;
59659;SDS011;45534;52.690;6.268;2022-10-26T02:27:30;18.60;;;6.43;;
59659;SDS011;45534;52.690;6.268;2022-10-26T02:29:58;14.23;;;7.10;;
59659;SDS011;45534;52.690;6.268;2022-10-26T02:32:28;12.35;;;7.47;;
59659;SDS011;45534;52.690;6.268;2022-10-26T02:34:58;11.50;;;6.13;;
59659;SDS011;45534;52.690;6.268;2022-10-26T02:37:26;11.05;;;6.57;;
59659;SDS011;45534;52.690;6.268;2022-10-26T02:39:54;10.40;;;6.38;;
59659;SDS011;45534;52.690;6.268;2022-10-26T02:42:23;12.68;;;8.73;;
59659;SDS011;45534;52.690;6.268;2022-10-26T02:44:55;11.40;;;7.93;;
59659;SDS011;45534;52.690;6.268;2022-10-26T02:47:24;11.10;;;6.57;;
59659;SDS011;45534;52.690;6.268;2022-10-26T02:49:51;10.07;;;7.15;;
59659;SDS011;45534;52.690;6.268;2022-10-26T02:52:22;18.40;;;7.63;;
59659;SDS011;45534;52.690;6.268;2022-10-26T02:54:51;11.13;;;7.25;;
59659;SDS011;45534;52.690;6.268;2022-10-26T02:57:35;14.90;;;9.82;;
59659;SDS011;45534;52.690;6.268;2022-10-26T03:00:04;14.43;;;10.10;;
59659;SDS011;45534;52.690;6.268;2022-10-26T03:02:34;15.53;;;8.80;;
59659;SDS011;45534;52.690;6.268;2022-10-26T03:05:08;18.00;;;8.68;;
59659;SDS011;45534;52.690;6.268;2022-10-26T03:07:40;14.45;;;8.40;;
59659;SDS011;45534;52.690;6.268;2022-10-26T03:10:06;20.13;;;9.50;;
59659;SDS011;45534;52.690;6.268;2022-10-26T03:12:32;14.35;;;8.57;;
59659;SDS011;45534;52.690;6.268;2022-10-26T03:14:57;14.13;;;6.82;;
59659;SDS011;45534;52.690;6.268;2022-10-26T03:17:23;16.75;;;9.75;;
59659;SDS011;45534;52.690;6.268;2022-10-26T03:19:49;11.25;;;7.35;;
59659;SDS011;45534;52.690;6.268;2022-10-26T03:22:14;12.73;;;9.27;;
59659;SDS011;45534;52.690;6.268;2022-10-26T03:24:40;10.50;;;6.38;;
59659;SDS011;45534;52.690;6.268;2022-10-26T03:27:06;13.25;;;7.40;;
59659;SDS011;45534;52.690;6.268;2022-10-26T03:29:31;11.52;;;7.13;;
59659;SDS011;45534;52.690;6.268;2022-10-26T03:31:57;11.68;;;7.97;;
59659;SDS011;45534;52.690;6.268;2022-10-26T03:34:23;15.98;;;10.60;;
59659;SDS011;45534;52.690;6.268;2022-10-26T03:36:48;17.05;;;10.80;;
59659;SDS011;45534;52.690;6.268;2022-10-26T03:39:14;15.52;;;8.95;;
59659;SDS011;45534;52.690;6.268;2022-10-26T03:41:40;14.07;;;8.02;;
59659;SDS011;45534;52.690;6.268;2022-10-26T03:44:05;14.20;;;8.23;;
59659;SDS011;45534;52.690;6.268;2022-10-26T03:46:31;10.93;;;8.13;;
59659;SDS011;45534;52.690;6.268;2022-10-26T03:48:59;13.05;;;9.00;;
59659;SDS011;45534;52.690;6.268;2022-10-26T03:51:25;14.27;;;9.30;;
59659;SDS011;45534;52.690;6.268;2022-10-26T03:53:52;13.85;;;7.72;;
59659;SDS011;45534;52.690;6.268;2022-10-26T03:56:17;12.25;;;7.28;;
59659;SDS011;45534;52.690;6.268;2022-10-26T03:58:43;16.08;;;9.88;;
59659;SDS011;45534;52.690;6.268;2022-10-26T04:01:09;12.95;;;9.15;;
59659;SDS011;45534;52.690;6.268;2022-10-26T04:03:34;13.18;;;8.85;;
59659;SDS011;45534;52.690;6.268;2022-10-26T04:06:00;10.75;;;7.85;;
59659;SDS011;45534;52.690;6.268;2022-10-26T04:08:27;20.63;;;9.98;;
59659;SDS011;45534;52.690;6.268;2022-10-26T04:10:52;14.38;;;8.10;;
59659;SDS011;45534;52.690;6.268;2022-10-26T04:13:18;15.50;;;11.68;;
59659;SDS011;45534;52.690;6.268;2022-10-26T04:15:44;14.18;;;8.80;;
59659;SDS011;45534;52.690;6.268;2022-10-26T04:18:09;12.48;;;9.25;;
59659;SDS011;45534;52.690;6.268;2022-10-26T04:20:38;14.68;;;9.40;;
59659;SDS011;45534;52.690;6.268;2022-10-26T04:23:06;18.17;;;10.18;;
59659;SDS011;45534;52.690;6.268;2022-10-26T04:25:36;16.23;;;9.48;;
59659;SDS011;45534;52.690;6.268;2022-10-26T04:28:03;17.25;;;9.73;;
59659;SDS011;45534;52.690;6.268;2022-10-26T04:30:29;19.90;;;10.45;;
59659;SDS011;45534;52.690;6.268;2022-10-26T04:32:56;21.30;;;11.55;;
59659;SDS011;45534;52.690;6.268;2022-10-26T04:35:22;15.98;;;8.32;;
59659;SDS011;45534;52.690;6.268;2022-10-26T04:37:47;16.50;;;10.75;;
59659;SDS011;45534;52.690;6.268;2022-10-26T04:40:13;16.20;;;9.48;;
59659;SDS011;45534;52.690;6.268;2022-10-26T04:42:40;11.32;;;8.38;;
59659;SDS011;45534;52.690;6.268;2022-10-26T04:45:12;13.75;;;8.57;;
59659;SDS011;45534;52.690;6.268;2022-10-26T04:47:41;12.98;;;9.18;;
59659;SDS011;45534;52.690;6.268;2022-10-26T04:50:08;14.52;;;8.30;;
59659;SDS011;45534;52.690;6.268;2022-10-26T04:52:35;12.38;;;8.18;;
59659;SDS011;45534;52.690;6.268;2022-10-26T04:55:01;11.02;;;8.75;;
59659;SDS011;45534;52.690;6.268;2022-10-26T04:57:30;16.35;;;9.25;;
59659;SDS011;45534;52.690;6.268;2022-10-26T04:59:59;17.52;;;9.85;;
59659;SDS011;45534;52.690;6.268;2022-10-26T05:02:26;17.92;;;10.60;;
59659;SDS011;45534;52.690;6.268;2022-10-26T05:04:53;16.23;;;8.02;;
59659;SDS011;45534;52.690;6.268;2022-10-26T05:07:19;16.98;;;10.35;;
59659;SDS011;45534;52.690;6.268;2022-10-26T05:09:45;17.30;;;9.40;;
59659;SDS011;45534;52.690;6.268;2022-10-26T05:12:11;14.18;;;8.18;;
59659;SDS011;45534;52.690;6.268;2022-10-26T05:14:37;20.23;;;10.60;;
59659;SDS011;45534;52.690;6.268;2022-10-26T05:17:02;14.00;;;9.88;;
59659;SDS011;45534;52.690;6.268;2022-10-26T05:19:28;13.70;;;8.23;;
59659;SDS011;45534;52.690;6.268;2022-10-26T05:21:54;14.70;;;9.20;;
59659;SDS011;45534;52.690;6.268;2022-10-26T05:24:19;24.27;;;10.88;;
59659;SDS011;45534;52.690;6.268;2022-10-26T05:26:45;12.25;;;6.38;;
59659;SDS011;45534;52.690;6.268;2022-10-26T05:29:11;13.55;;;8.73;;
59659;SDS011;45534;52.690;6.268;2022-10-26T05:31:36;17.08;;;9.63;;
59659;SDS011;45534;52.690;6.268;2022-10-26T05:34:02;12.73;;;9.52;;
59659;SDS011;45534;52.690;6.268;2022-10-26T05:36:28;11.80;;;8.95;;
59659;SDS011;45534;52.690;6.268;2022-10-26T05:38:56;20.20;;;10.43;;
59659;SDS011;45534;52.690;6.268;2022-10-26T05:41:22;14.13;;;7.53;;
59659;SDS011;45534;52.690;6.268;2022-10-26T05:43:48;14.88;;;9.02;;
59659;SDS011;45534;52.690;6.268;2022-10-26T05:46:14;14.20;;;9.27;;
59659;SDS011;45534;52.690;6.268;2022-10-26T05:48:40;12.60;;;8.55;;
59659;SDS011;45534;52.690;6.268;2022-10-26T05:51:05;14.57;;;7.13;;
59659;SDS011;45534;52.690;6.268;2022-10-26T05:53:31;18.95;;;8.35;;
59659;SDS011;45534;52.690;6.268;2022-10-26T05:55:57;16.33;;;7.80;;
59659;SDS011;45534;52.690;6.268;2022-10-26T05:58:23;14.05;;;8.15;;
59659;SDS011;45534;52.690;6.268;2022-10-26T06:06:16;37.15;;;10.02;;
59659;SDS011;45534;52.690;6.268;2022-10-26T06:08:42;15.68;;;9.02;;
59659;SDS011;45534;52.690;6.268;2022-10-26T06:11:08;19.40;;;11.45;;
59659;SDS011;45534;52.690;6.268;2022-10-26T06:13:34;12.48;;;9.23;;
59659;SDS011;45534;52.690;6.268;2022-10-26T06:19:02;12.38;;;8.73;;
59659;SDS011;45534;52.690;6.268;2022-10-26T06:21:58;18.77;;;10.95;;
59659;SDS011;45534;52.690;6.268;2022-10-26T06:30:46;14.02;;;9.05;;
59659;SDS011;45534;52.690;6.268;2022-10-26T06:33:12;13.63;;;8.32;;
59659;SDS011;45534;52.690;6.268;2022-10-26T06:38:17;23.42;;;7.25;;
59659;SDS011;45534;52.690;6.268;2022-10-26T06:40:47;11.35;;;7.63;;
59659;SDS011;45534;52.690;6.268;2022-10-26T06:43:19;12.52;;;8.02;;
59659;SDS011;45534;52.690;6.268;2022-10-26T06:51:40;13.38;;;7.72;;
59659;SDS011;45534;52.690;6.268;2022-10-26T06:56:58;11.45;;;8.73;;
59659;SDS011;45534;52.690;6.268;2022-10-26T07:02:01;10.75;;;6.78;;
59659;SDS011;45534;52.690;6.268;2022-10-26T07:04:27;10.63;;;7.40;;
59659;SDS011;45534;52.690;6.268;2022-10-26T07:06:53;13.68;;;8.20;;
59659;SDS011;45534;52.690;6.268;2022-10-26T07:09:21;13.27;;;7.75;;
59659;SDS011;45534;52.690;6.268;2022-10-26T07:11:46;11.02;;;6.90;;
59659;SDS011;45534;52.690;6.268;2022-10-26T07:14:12;17.30;;;6.30;;
59659;SDS011;45534;52.690;6.268;2022-10-26T07:16:38;20.02;;;7.95;;
59659;SDS011;45534;52.690;6.268;2022-10-26T07:19:04;9.73;;;6.28;;
59659;SDS011;45534;52.690;6.268;2022-10-26T07:21:29;14.93;;;8.82;;
59659;SDS011;45534;52.690;6.268;2022-10-26T07:23:55;9.70;;;6.15;;
59659;SDS011;45534;52.690;6.268;2022-10-26T07:26:21;7.95;;;5.72;;
59659;SDS011;45534;52.690;6.268;2022-10-26T07:28:47;13.30;;;6.80;;
59659;SDS011;45534;52.690;6.268;2022-10-26T07:31:14;16.30;;;7.38;;
59659;SDS011;45534;52.690;6.268;2022-10-26T07:33:40;10.10;;;7.28;;
59659;SDS011;45534;52.690;6.268;2022-10-26T07:36:07;11.95;;;7.70;;
59659;SDS011;45534;52.690;6.268;2022-10-26T07:38:35;19.48;;;8.18;;
59659;SDS011;45534;52.690;6.268;2022-10-26T07:41:01;15.75;;;9.65;;
59659;SDS011;45534;52.690;6.268;2022-10-26T07:43:27;10.00;;;6.85;;
59659;SDS011;45534;52.690;6.268;2022-10-26T07:45:53;12.20;;;8.25;;
59659;SDS011;45534;52.690;6.268;2022-10-26T07:48:18;9.98;;;6.07;;
59659;SDS011;45534;52.690;6.268;2022-10-26T07:50:44;17.40;;;6.65;;
59659;SDS011;45534;52.690;6.268;2022-10-26T07:53:10;9.40;;;6.40;;
59659;SDS011;45534;52.690;6.268;2022-10-26T07:55:35;10.73;;;6.78;;
59659;SDS011;45534;52.690;6.268;2022-10-26T07:58:01;8.65;;;5.03;;
59659;SDS011;45534;52.690;6.268;2022-10-26T08:00:27;9.05;;;4.50;;
59659;SDS011;45534;52.690;6.268;2022-10-26T08:02:53;20.50;;;7.80;;
59659;SDS011;45534;52.690;6.268;2022-10-26T08:05:19;14.82;;;7.20;;
59659;SDS011;45534;52.690;6.268;2022-10-26T08:07:45;8.48;;;4.97;;
59659;SDS011;45534;52.690;6.268;2022-10-26T08:10:11;11.20;;;5.60;;
59659;SDS011;45534;52.690;6.268;2022-10-26T08:12:38;10.52;;;6.70;;
59659;SDS011;45534;52.690;6.268;2022-10-26T08:15:05;10.43;;;5.72;;
59659;SDS011;45534;52.690;6.268;2022-10-26T08:17:31;6.18;;;4.57;;
59659;SDS011;45534;52.690;6.268;2022-10-26T08:19:57;9.07;;;6.10;;
59659;SDS011;45534;52.690;6.268;2022-10-26T08:22:24;8.98;;;5.13;;
59659;SDS011;45534;52.690;6.268;2022-10-26T08:24:49;9.95;;;6.65;;
59659;SDS011;45534;52.690;6.268;2022-10-26T08:27:15;8.63;;;6.15;;
59659;SDS011;45534;52.690;6.268;2022-10-26T08:29:41;7.75;;;5.45;;
59659;SDS011;45534;52.690;6.268;2022-10-26T08:32:08;12.43;;;4.95;;
59659;SDS011;45534;52.690;6.268;2022-10-26T08:34:33;12.68;;;5.65;;
59659;SDS011;45534;52.690;6.268;2022-10-26T08:36:59;12.77;;;6.28;;
59659;SDS011;45534;52.690;6.268;2022-10-26T08:39:25;16.40;;;6.25;;
59659;SDS011;45534;52.690;6.268;2022-10-26T08:41:55;9.18;;;5.97;;
59659;SDS011;45534;52.690;6.268;2022-10-26T08:44:28;7.45;;;4.35;;
59659;SDS011;45534;52.690;6.268;2022-10-26T08:47:04;10.80;;;5.43;;
59659;SDS011;45534;52.690;6.268;2022-10-26T08:49:57;10.85;;;5.00;;
59659;SDS011;45534;52.690;6.268;2022-10-26T08:55:33;6.75;;;4.38;;
59659;SDS011;45534;52.690;6.268;2022-10-26T08:58:06;13.68;;;5.60;;
59659;SDS011;45534;52.690;6.268;2022-10-26T09:00:39;9.25;;;5.07;;
59659;SDS011;45534;52.690;6.268;2022-10-26T09:03:10;8.38;;;5.28;;
59659;SDS011;45534;52.690;6.268;2022-10-26T09:06:04;7.97;;;5.28;;
59659;SDS011;45534;52.690;6.268;2022-10-26T09:08:43;7.05;;;4.53;;
59659;SDS011;45534;52.690;6.268;2022-10-26T09:19:36;5.03;;;2.88;;
59659;SDS011;45534;52.690;6.268;2022-10-26T09:22:36;3.83;;;2.97;;
59659;SDS011;45534;52.690;6.268;2022-10-26T09:25:18;6.85;;;3.88;;
59659;SDS011;45534;52.690;6.268;2022-10-26T09:27:55;4.72;;;3.00;;
59659;SDS011;45534;52.690;6.268;2022-10-26T09:30:23;7.43;;;5.43;;
59659;SDS011;45534;52.690;6.268;2022-10-26T09:32:51;3.28;;;2.97;;
59659;SDS011;45534;52.690;6.268;2022-10-26T09:35:27;6.82;;;2.55;;
59659;SDS011;45534;52.690;6.268;2022-10-26T09:38:24;8.02;;;4.47;;
59659;SDS011;45534;52.690;6.268;2022-10-26T09:46:04;3.95;;;2.72;;
59659;SDS011;45534;52.690;6.268;2022-10-26T09:51:35;4.55;;;3.20;;
59659;SDS011;45534;52.690;6.268;2022-10-26T09:54:15;13.85;;;3.42;;
59659;SDS011;45534;52.690;6.268;2022-10-26T09:56:43;7.55;;;3.45;;
59659;SDS011;45534;52.690;6.268;2022-10-26T09:59:19;7.55;;;3.05;;
59659;SDS011;45534;52.690;6.268;2022-10-26T10:01:47;13.70;;;5.80;;
59659;SDS011;45534;52.690;6.268;2022-10-26T10:06:44;2.72;;;2.17;;
59659;SDS011;45534;52.690;6.268;2022-10-26T10:11:43;5.40;;;3.30;;
59659;SDS011;45534;52.690;6.268;2022-10-26T10:14:24;4.10;;;2.63;;
59659;SDS011;45534;52.690;6.268;2022-10-26T10:16:53;6.10;;;4.53;;
59659;SDS011;45534;52.690;6.268;2022-10-26T10:19:20;6.45;;;3.47;;
59659;SDS011;45534;52.690;6.268;2022-10-26T10:21:48;2.17;;;2.08;;
59659;SDS011;45534;52.690;6.268;2022-10-26T10:24:23;5.13;;;2.65;;
59659;SDS011;45534;52.690;6.268;2022-10-26T10:29:27;7.80;;;3.17;;
59659;SDS011;45534;52.690;6.268;2022-10-26T10:31:55;7.68;;;2.58;;
59659;SDS011;45534;52.690;6.268;2022-10-26T10:34:21;3.10;;;2.10;;
59659;SDS011;45534;52.690;6.268;2022-10-26T10:36:48;2.60;;;1.98;;
59659;SDS011;45534;52.690;6.268;2022-10-26T10:39:36;4.28;;;2.95;;
59659;SDS011;45534;52.690;6.268;2022-10-26T10:42:09;4.95;;;2.72;;
59659;SDS011;45534;52.690;6.268;2022-10-26T10:44:40;3.28;;;2.97;;
59659;SDS011;45534;52.690;6.268;2022-10-26T10:47:13;2.05;;;1.75;;
59659;SDS011;45534;52.690;6.268;2022-10-26T10:50:01;7.05;;;3.13;;
59659;SDS011;45534;52.690;6.268;2022-10-26T10:52:31;3.70;;;2.80;;
59659;SDS011;45534;52.690;6.268;2022-10-26T10:55:20;8.90;;;4.50;;
59659;SDS011;45534;52.690;6.268;2022-10-26T10:57:55;8.35;;;4.85;;
59659;SDS011;45534;52.690;6.268;2022-10-26T11:00:32;8.30;;;5.35;;
59659;SDS011;45534;52.690;6.268;2022-10-26T11:03:07;8.40;;;2.80;;
59659;SDS011;45534;52.690;6.268;2022-10-26T11:08:50;1.90;;;1.77;;
59659;SDS011;45534;52.690;6.268;2022-10-26T11:11:32;6.28;;;3.20;;
59659;SDS011;45534;52.690;6.268;2022-10-26T11:16:51;5.00;;;3.22;;
59659;SDS011;45534;52.690;6.268;2022-10-26T11:19:23;9.43;;;5.53;;
59659;SDS011;45534;52.690;6.268;2022-10-26T11:21:56;16.15;;;5.45;;
59659;SDS011;45534;52.690;6.268;2022-10-26T11:26:54;14.63;;;5.57;;
59659;SDS011;45534;52.690;6.268;2022-10-26T11:29:44;11.45;;;5.45;;
59659;SDS011;45534;52.690;6.268;2022-10-26T11:35:16;19.88;;;5.40;;
59659;SDS011;45534;52.690;6.268;2022-10-26T11:40:32;9.43;;;5.88;;
59659;SDS011;45534;52.690;6.268;2022-10-26T11:46:11;8.05;;;4.70;;
59659;SDS011;45534;52.690;6.268;2022-10-26T11:54:09;14.45;;;5.93;;
59659;SDS011;45534;52.690;6.268;2022-10-26T11:56:44;7.90;;;4.78;;
59659;SDS011;45534;52.690;6.268;2022-10-26T11:59:19;12.70;;;5.88;;
59659;SDS011;45534;52.690;6.268;2022-10-26T12:01:52;21.73;;;6.10;;
59659;SDS011;45534;52.690;6.268;2022-10-26T12:04:25;8.80;;;4.90;;
59659;SDS011;45534;52.690;6.268;2022-10-26T12:06:54;17.77;;;5.68;;
59659;SDS011;45534;52.690;6.268;2022-10-26T12:09:23;13.00;;;4.63;;
59659;SDS011;45534;52.690;6.268;2022-10-26T12:17:51;12.85;;;5.45;;
59659;SDS011;45534;52.690;6.268;2022-10-26T12:22:46;15.10;;;4.93;;
59659;SDS011;45534;52.690;6.268;2022-10-26T12:37:56;13.05;;;6.38;;
59659;SDS011;45534;52.690;6.268;2022-10-26T12:42:54;12.20;;;7.40;;
59659;SDS011;45534;52.690;6.268;2022-10-26T12:45:21;14.07;;;7.25;;
59659;SDS011;45534;52.690;6.268;2022-10-26T13:01:27;17.63;;;7.45;;
59659;SDS011;45534;52.690;6.268;2022-10-26T13:09:25;19.60;;;8.82;;
59659;SDS011;45534;52.690;6.268;2022-10-26T13:11:54;13.65;;;7.35;;
59659;SDS011;45534;52.690;6.268;2022-10-26T13:14:28;11.38;;;6.43;;
59659;SDS011;45534;52.690;6.268;2022-10-26T13:16:58;10.90;;;6.45;;
59659;SDS011;45534;52.690;6.268;2022-10-26T13:19:29;9.77;;;5.70;;
59659;SDS011;45534;52.690;6.268;2022-10-26T13:22:04;10.43;;;5.88;;
59659;SDS011;45534;52.690;6.268;2022-10-26T13:24:30;10.23;;;6.10;;
59659;SDS011;45534;52.690;6.268;2022-10-26T13:29:31;13.85;;;6.38;;
59659;SDS011;45534;52.690;6.268;2022-10-26T13:32:17;13.52;;;6.57;;
59659;SDS011;45534;52.690;6.268;2022-10-26T13:34:44;10.07;;;6.28;;
59659;SDS011;45534;52.690;6.268;2022-10-26T13:39:44;13.15;;;6.72;;
59659;SDS011;45534;52.690;6.268;2022-10-26T13:42:13;10.80;;;6.30;;
59659;SDS011;45534;52.690;6.268;2022-10-26T13:44:58;10.60;;;6.25;;
59659;SDS011;45534;52.690;6.268;2022-10-26T13:47:35;17.33;;;6.15;;
59659;SDS011;45534;52.690;6.268;2022-10-26T13:50:06;10.80;;;6.78;;
59659;SDS011;45534;52.690;6.268;2022-10-26T13:52:40;13.52;;;6.85;;
59659;SDS011;45534;52.690;6.268;2022-10-26T13:55:09;19.40;;;6.57;;
59659;SDS011;45534;52.690;6.268;2022-10-26T13:57:39;20.05;;;7.20;;
59659;SDS011;45534;52.690;6.268;2022-10-26T14:00:12;14.20;;;7.45;;
59659;SDS011;45534;52.690;6.268;2022-10-26T14:02:46;14.35;;;6.35;;
59659;SDS011;45534;52.690;6.268;2022-10-26T14:05:13;12.73;;;6.20;;
59659;SDS011;45534;52.690;6.268;2022-10-26T14:10:25;12.48;;;6.55;;
59659;SDS011;45534;52.690;6.268;2022-10-26T14:12:52;9.40;;;5.57;;
59659;SDS011;45534;52.690;6.268;2022-10-26T14:15:20;14.32;;;6.15;;
59659;SDS011;45534;52.690;6.268;2022-10-26T14:17:57;13.38;;;5.65;;
59659;SDS011;45534;52.690;6.268;2022-10-26T14:20:25;16.38;;;6.45;;
59659;SDS011;45534;52.690;6.268;2022-10-26T14:22:52;14.25;;;5.95;;
59659;SDS011;45534;52.690;6.268;2022-10-26T14:25:22;10.88;;;5.78;;
59659;SDS011;45534;52.690;6.268;2022-10-26T14:27:50;10.98;;;5.90;;
59659;SDS011;45534;52.690;6.268;2022-10-26T14:32:57;13.68;;;5.95;;
59659;SDS011;45534;52.690;6.268;2022-10-26T14:35:26;7.25;;;4.50;;
59659;SDS011;45534;52.690;6.268;2022-10-26T14:38:02;18.98;;;5.93;;
59659;SDS011;45534;52.690;6.268;2022-10-26T14:40:33;18.35;;;7.45;;
59659;SDS011;45534;52.690;6.268;2022-10-26T14:43:00;14.25;;;5.50;;
59659;SDS011;45534;52.690;6.268;2022-10-26T14:45:29;17.13;;;7.18;;
59659;SDS011;45534;52.690;6.268;2022-10-26T14:48:01;14.98;;;6.22;;
59659;SDS011;45534;52.690;6.268;2022-10-26T14:50:29;12.57;;;6.65;;
59659;SDS011;45534;52.690;6.268;2022-10-26T14:53:17;9.70;;;6.22;;
59659;SDS011;45534;52.690;6.268;2022-10-26T14:55:47;17.88;;;6.88;;
59659;SDS011;45534;52.690;6.268;2022-10-26T15:01:12;14.15;;;5.72;;
59659;SDS011;45534;52.690;6.268;2022-10-26T15:04:02;10.40;;;5.28;;
59659;SDS011;45534;52.690;6.268;2022-10-26T15:06:38;9.48;;;5.25;;
59659;SDS011;45534;52.690;6.268;2022-10-26T15:09:06;13.20;;;5.82;;
59659;SDS011;45534;52.690;6.268;2022-10-26T15:11:59;9.77;;;5.50;;
59659;SDS011;45534;52.690;6.268;2022-10-26T15:14:26;9.00;;;4.40;;
59659;SDS011;45534;52.690;6.268;2022-10-26T15:16:53;9.98;;;4.95;;
59659;SDS011;45534;52.690;6.268;2022-10-26T15:19:21;7.85;;;5.07;;
59659;SDS011;45534;52.690;6.268;2022-10-26T15:21:48;8.57;;;5.25;;
59659;SDS011;45534;52.690;6.268;2022-10-26T15:26:44;11.48;;;6.05;;
59659;SDS011;45534;52.690;6.268;2022-10-26T15:32:03;8.75;;;4.05;;
59659;SDS011;45534;52.690;6.268;2022-10-26T15:34:41;14.02;;;5.72;;
59659;SDS011;45534;52.690;6.268;2022-10-26T15:37:06;9.00;;;5.05;;
59659;SDS011;45534;52.690;6.268;2022-10-26T15:39:32;13.82;;;6.20;;
59659;SDS011;45534;52.690;6.268;2022-10-26T15:41:58;11.38;;;5.85;;
59659;SDS011;45534;52.690;6.268;2022-10-26T15:44:24;12.05;;;5.57;;
59659;SDS011;45534;52.690;6.268;2022-10-26T15:46:49;5.15;;;4.20;;
59659;SDS011;45534;52.690;6.268;2022-10-26T15:49:19;3.80;;;2.78;;
59659;SDS011;45534;52.690;6.268;2022-10-26T15:51:46;5.75;;;3.75;;
59659;SDS011;45534;52.690;6.268;2022-10-26T15:54:12;3.50;;;3.20;;
59659;SDS011;45534;52.690;6.268;2022-10-26T15:56:38;8.75;;;5.88;;
59659;SDS011;45534;52.690;6.268;2022-10-26T15:59:09;14.00;;;5.45;;
59659;SDS011;45534;52.690;6.268;2022-10-26T16:01:38;10.50;;;5.63;;
59659;SDS011;45534;52.690;6.268;2022-10-26T16:04:04;10.57;;;5.30;;
59659;SDS011;45534;52.690;6.268;2022-10-26T16:06:30;5.32;;;3.90;;
59659;SDS011;45534;52.690;6.268;2022-10-26T16:09:02;7.13;;;3.78;;
59659;SDS011;45534;52.690;6.268;2022-10-26T16:11:30;3.83;;;3.10;;
59659;SDS011;45534;52.690;6.268;2022-10-26T16:13:56;7.05;;;4.85;;
59659;SDS011;45534;52.690;6.268;2022-10-26T16:16:23;3.60;;;3.30;;
59659;SDS011;45534;52.690;6.268;2022-10-26T16:18:52;10.68;;;4.32;;
59659;SDS011;45534;52.690;6.268;2022-10-26T16:21:19;9.55;;;3.75;;
59659;SDS011;45534;52.690;6.268;2022-10-26T16:23:46;12.68;;;6.68;;
59659;SDS011;45534;52.690;6.268;2022-10-26T16:26:13;5.15;;;3.50;;
59659;SDS011;45534;52.690;6.268;2022-10-26T16:28:39;11.43;;;7.10;;
59659;SDS011;45534;52.690;6.268;2022-10-26T16:31:06;4.55;;;4.13;;
59659;SDS011;45534;52.690;6.268;2022-10-26T16:33:34;5.40;;;3.72;;
59659;SDS011;45534;52.690;6.268;2022-10-26T16:36:00;7.25;;;4.30;;
59659;SDS011;45534;52.690;6.268;2022-10-26T16:38:26;5.18;;;3.20;;
59659;SDS011;45534;52.690;6.268;2022-10-26T16:41:14;4.47;;;3.83;;
59659;SDS011;45534;52.690;6.268;2022-10-26T16:43:41;13.25;;;7.35;;
59659;SDS011;45534;52.690;6.268;2022-10-26T16:46:12;10.77;;;7.13;;
59659;SDS011;45534;52.690;6.268;2022-10-26T16:48:45;5.43;;;3.75;;
59659;SDS011;45534;52.690;6.268;2022-10-26T16:51:16;7.30;;;4.78;;
59659;SDS011;45534;52.690;6.268;2022-10-26T16:56:14;11.05;;;5.60;;
59659;SDS011;45534;52.690;6.268;2022-10-26T16:58:41;10.43;;;6.20;;
59659;SDS011;45534;52.690;6.268;2022-10-26T17:01:07;7.18;;;4.00;;
59659;SDS011;45534;52.690;6.268;2022-10-26T17:03:34;6.43;;;4.70;;
59659;SDS011;45534;52.690;6.268;2022-10-26T17:06:04;23.65;;;5.13;;
59659;SDS011;45534;52.690;6.268;2022-10-26T17:08:32;13.85;;;7.57;;
59659;SDS011;45534;52.690;6.268;2022-10-26T17:11:06;6.20;;;4.50;;
59659;SDS011;45534;52.690;6.268;2022-10-26T17:13:37;6.72;;;5.07;;
59659;SDS011;45534;52.690;6.268;2022-10-26T17:16:08;4.05;;;3.65;;
59659;SDS011;45534;52.690;6.268;2022-10-26T17:18:37;6.07;;;4.20;;
59659;SDS011;45534;52.690;6.268;2022-10-26T17:21:04;16.42;;;5.50;;
59659;SDS011;45534;52.690;6.268;2022-10-26T17:23:29;5.60;;;4.47;;
59659;SDS011;45534;52.690;6.268;2022-10-26T17:25:59;5.57;;;4.88;;
59659;SDS011;45534;52.690;6.268;2022-10-26T17:28:25;6.93;;;4.80;;
59659;SDS011;45534;52.690;6.268;2022-10-26T17:30:51;6.63;;;4.93;;
59659;SDS011;45534;52.690;6.268;2022-10-26T17:33:26;9.25;;;5.45;;
59659;SDS011;45534;52.690;6.268;2022-10-26T17:35:52;13.50;;;5.47;;